Chestnut Mountain, Georgia
Current Conditions -  °F | °C
As of 5:53 AM on Wednesday 22 Oct 2014 (Local Time) from KGVL Reporting Station
Clear Clear  
Wind Chill: 43°   Ceiling: Unl
Heat Index: 48°   Visibility: 10mi
Dew Point: 37°   Wind: 12mph
Humidity: 66%   Direction: 330°NNW
Pressure: 30.04"   Gusts: NA
Location:  34.17°N, 83.84°W
Report Text: KGVL 220953Z AUTO 33010KT 10SM CLR 09/03 A3004 RMK AO2 SLP167 T00890028
Loading
Personal Weather Stations






























Interactive Weather Map
Tropical Storm Tracking
New forecast layout! Learn more

10-Day Weather Forecast

Advertisements
Track Severe Weather on mobile